createdAt,value
2023-01-17T00:02:49.662Z,1.10
2023-01-17T00:06:11.706Z,1.10
2023-01-17T00:09:33.486Z,1.33
2023-01-17T00:12:36.997Z,1.10
2023-01-17T00:15:40.231Z,0.83
2023-01-17T00:19:03.462Z,1.00
2023-01-17T00:22:29.799Z,1.27
2023-01-17T00:25:52.569Z,1.00
2023-01-17T00:28:54.508Z,1.20
2023-01-17T00:31:56.403Z,1.10
2023-01-17T00:34:58.323Z,1.23
2023-01-17T00:38:03.485Z,1.10
2023-01-17T00:41:07.254Z,1.00
2023-01-17T00:44:28.045Z,1.20
2023-01-17T00:47:48.535Z,0.90
2023-01-17T00:51:08.956Z,0.90
2023-01-17T00:54:31.443Z,1.03
2023-01-17T00:57:51.923Z,1.10
2023-01-17T01:01:13.196Z,0.97
2023-01-17T01:04:34.096Z,1.03
2023-01-17T01:07:54.559Z,0.93
2023-01-17T01:11:16.335Z,1.20
2023-01-17T01:14:36.917Z,1.20
2023-01-17T01:17:57.392Z,1.30
2023-01-17T01:21:21.415Z,1.10
2023-01-17T01:24:42.262Z,1.23
2023-01-17T01:28:04.098Z,1.20
2023-01-17T01:31:24.732Z,1.13
2023-01-17T01:34:27.746Z,0.70
2023-01-17T01:37:31.944Z,1.03
2023-01-17T01:40:34.928Z,1.00
2023-01-17T01:43:46.077Z,1.23
2023-01-17T01:46:49.106Z,1.10
2023-01-17T01:49:52.470Z,1.00
2023-01-17T01:52:58.765Z,1.00
2023-01-17T01:56:02.112Z,1.40
2023-01-17T01:59:09.700Z,0.93
2023-01-17T02:02:13.287Z,1.20
2023-01-17T02:05:18.944Z,1.20
2023-01-17T02:08:24.886Z,1.70
2023-01-17T02:11:28.479Z,1.33
2023-01-17T02:14:32.840Z,1.30
2023-01-17T02:17:47.037Z,1.60
2023-01-17T02:21:13.412Z,1.40
2023-01-17T02:24:50.139Z,1.60
2023-01-17T02:28:07.548Z,1.73
2023-01-17T02:31:18.679Z,1.93
2023-01-17T02:34:28.858Z,2.23
2023-01-17T02:37:41.032Z,2.03
2023-01-17T02:40:49.250Z,2.40
2023-01-17T02:43:53.351Z,2.47
2023-01-17T02:46:59.244Z,2.87
2023-01-17T02:50:05.250Z,3.37
2023-01-17T02:53:22.207Z,2.90
2023-01-17T02:56:39.668Z,3.30
2023-01-17T02:59:53.244Z,3.13
2023-01-17T03:03:06.082Z,3.80
2023-01-17T03:06:13.320Z,3.70
2023-01-17T03:09:18.676Z,4.00
2023-01-17T03:12:22.093Z,3.77
2023-01-17T03:15:25.272Z,3.50
2023-01-17T03:18:29.610Z,3.97
2023-01-17T03:21:32.797Z,4.30
2023-01-17T03:24:35.760Z,4.17
2023-01-17T03:27:38.747Z,4.60
2023-01-17T03:30:41.781Z,4.70
2023-01-17T03:33:46.367Z,5.30
2023-01-17T03:36:49.702Z,5.00
2023-01-17T03:39:52.698Z,5.00
2023-01-17T03:42:55.686Z,5.20
2023-01-17T03:46:03.442Z,5.63
2023-01-17T03:49:07.868Z,4.60
2023-01-17T03:52:10.921Z,4.90
2023-01-17T03:55:13.878Z,4.90
2023-01-17T03:58:16.978Z,4.17
2023-01-17T04:01:20.161Z,4.63
2023-01-17T04:04:24.709Z,4.63
2023-01-17T04:07:27.819Z,4.10
2023-01-17T04:10:30.791Z,4.83
2023-01-17T04:13:33.798Z,4.97
2023-01-17T04:16:38.610Z,4.30
2023-01-17T04:19:43.117Z,3.97
2023-01-17T04:22:46.219Z,2.90
2023-01-17T04:25:49.274Z,2.30
2023-01-17T04:28:52.769Z,1.83
2023-01-17T04:31:55.819Z,2.40
2023-01-17T04:35:00.153Z,2.77
2023-01-17T04:38:03.153Z,2.33
2023-01-17T04:41:06.526Z,2.13
2023-01-17T04:44:09.509Z,2.33
2023-01-17T04:47:12.510Z,2.93
2023-01-17T04:50:18.141Z,2.63
2023-01-17T04:53:21.132Z,2.40
2023-01-17T04:56:24.113Z,2.67
2023-01-17T04:59:27.131Z,2.50
2023-01-17T05:02:30.213Z,2.40
2023-01-17T05:05:34.800Z,2.80
2023-01-17T05:08:37.771Z,2.43
2023-01-17T05:11:40.746Z,2.70
2023-01-17T05:14:43.758Z,3.47
2023-01-17T05:17:46.720Z,3.00
2023-01-17T05:20:51.038Z,3.03
2023-01-17T05:23:54.028Z,3.37
2023-01-17T05:27:03.760Z,2.90
2023-01-17T05:30:07.803Z,2.90
2023-01-17T05:33:11.214Z,3.43
2023-01-17T05:36:15.551Z,3.23
2023-01-17T05:39:18.566Z,3.10
2023-01-17T05:42:21.517Z,3.00
2023-01-17T05:45:26.431Z,3.00
2023-01-17T05:48:29.442Z,2.37
2023-01-17T05:51:37.608Z,2.73
2023-01-17T05:54:40.586Z,2.03
2023-01-17T05:57:43.568Z,1.57
2023-01-17T06:00:46.863Z,1.33
2023-01-17T06:03:49.900Z,1.00
2023-01-17T06:06:54.206Z,1.77
2023-01-17T06:09:57.179Z,0.97
2023-01-17T06:13:05.500Z,0.40
2023-01-17T06:16:09.269Z,0.60
2023-01-17T06:19:13.367Z,0.50
2023-01-17T06:22:17.674Z,0.20
2023-01-17T06:25:20.703Z,0.20
2023-01-17T06:28:24.540Z,0.20
2023-01-17T06:31:27.652Z,0.10
2023-01-17T06:34:30.825Z,0.40
2023-01-17T06:37:35.167Z,0.70
2023-01-17T06:40:38.157Z,0.50
2023-01-17T06:43:41.152Z,0.77
2023-01-17T06:46:45.030Z,0.40
2023-01-17T06:49:48.187Z,0.33
2023-01-17T06:52:57.861Z,0.57
2023-01-17T06:56:00.939Z,0.40
2023-01-17T06:59:05.152Z,0.60
2023-01-17T07:02:11.426Z,0.53
2023-01-17T07:05:16.314Z,0.47
2023-01-17T07:08:21.497Z,0.37
2023-01-17T07:11:24.808Z,0.40
2023-01-17T07:14:27.850Z,0.43
2023-01-17T07:17:30.817Z,0.43
2023-01-17T07:20:34.108Z,0.60
2023-01-17T07:23:38.400Z,1.03
2023-01-17T07:26:41.375Z,0.83
2023-01-17T07:29:44.367Z,0.70
2023-01-17T07:32:53.014Z,0.60
2023-01-17T07:35:56.022Z,0.57
2023-01-17T07:39:00.424Z,0.53
2023-01-17T07:42:03.387Z,0.70
2023-01-17T07:45:07.832Z,0.57
2023-01-17T07:48:11.111Z,0.60
2023-01-17T07:51:14.141Z,0.90
2023-01-17T07:54:18.470Z,0.47
2023-01-17T07:57:21.701Z,0.70
2023-01-17T08:00:26.171Z,0.90
2023-01-17T08:03:32.205Z,1.00
2023-01-17T08:06:35.279Z,0.73
2023-01-17T08:09:39.619Z,0.77
2023-01-17T08:12:42.682Z,1.23
2023-01-17T08:15:48.451Z,1.03
2023-01-17T08:18:51.786Z,0.60
2023-01-17T08:21:54.782Z,0.90
2023-01-17T08:24:59.213Z,0.80
2023-01-17T08:28:02.323Z,0.57
2023-01-17T08:31:09.293Z,0.80
2023-01-17T08:34:14.090Z,0.37
2023-01-17T08:37:17.086Z,0.30
2023-01-17T08:40:22.105Z,0.53
2023-01-17T08:43:25.654Z,0.57
2023-01-17T08:46:30.009Z,0.30
2023-01-17T08:49:34.025Z,0.77
2023-01-17T08:52:37.116Z,0.50
2023-01-17T08:55:41.461Z,0.40
2023-01-17T08:58:44.456Z,0.70
2023-01-17T09:01:47.573Z,0.70
2023-01-17T09:04:51.446Z,0.87
2023-01-17T09:07:55.857Z,1.07
2023-01-17T09:11:03.565Z,1.10
2023-01-17T09:14:06.568Z,0.90
2023-01-17T09:17:09.597Z,0.80
2023-01-17T09:20:13.356Z,0.77
2023-01-17T09:23:16.369Z,0.70
2023-01-17T09:26:23.067Z,1.73
2023-01-17T09:29:26.122Z,0.80
2023-01-17T09:32:29.107Z,0.70
2023-01-17T09:35:32.564Z,1.20
2023-01-17T09:38:35.645Z,0.80
2023-01-17T09:41:48.470Z,0.60
2023-01-17T09:44:53.145Z,0.67
2023-01-17T09:47:56.307Z,0.50
2023-01-17T09:51:03.940Z,0.87
2023-01-17T09:54:18.854Z,1.10
2023-01-17T09:57:41.934Z,0.67
2023-01-17T10:00:56.810Z,1.03
2023-01-17T10:04:26.057Z,0.50
2023-01-17T10:07:40.610Z,0.67
2023-01-17T10:10:48.787Z,0.80
2023-01-17T10:14:03.232Z,1.00
2023-01-17T10:17:17.722Z,0.60
2023-01-17T10:20:45.806Z,0.80
2023-01-17T10:24:13.766Z,1.57
2023-01-17T10:27:22.590Z,1.00
2023-01-17T10:30:33.153Z,0.60
2023-01-17T10:33:42.582Z,0.73
2023-01-17T10:36:49.220Z,0.67
2023-01-17T10:39:55.200Z,0.70
2023-01-17T10:43:03.942Z,0.80
2023-01-17T10:46:16.658Z,1.00
2023-01-17T10:49:22.348Z,0.53
2023-01-17T10:52:35.709Z,0.83
2023-01-17T10:55:49.156Z,0.70
2023-01-17T10:58:58.768Z,0.53
2023-01-17T11:02:06.885Z,0.90
2023-01-17T11:05:21.357Z,0.53
2023-01-17T11:08:24.367Z,0.50
2023-01-17T11:11:31.715Z,0.50
2023-01-17T11:14:36.096Z,0.40
2023-01-17T11:17:46.694Z,0.67
2023-01-17T11:20:50.179Z,0.60
2023-01-17T11:23:56.717Z,0.70
2023-01-17T11:26:59.996Z,0.63
2023-01-17T11:30:06.475Z,0.80
2023-01-17T11:33:35.130Z,0.67
2023-01-17T11:36:38.346Z,0.80
2023-01-17T11:39:42.997Z,0.40
2023-01-17T11:42:46.658Z,0.80
2023-01-17T11:46:06.911Z,0.83
2023-01-17T11:49:24.149Z,0.50
2023-01-17T11:52:34.344Z,1.13
2023-01-17T11:55:37.751Z,0.60
2023-01-17T11:58:43.276Z,0.70
2023-01-17T12:01:55.653Z,0.77
2023-01-17T12:05:15.363Z,0.90
2023-01-17T12:08:31.326Z,0.53
2023-01-17T12:12:05.225Z,0.47
2023-01-17T12:15:22.837Z,1.00
2023-01-17T12:18:36.492Z,0.57
2023-01-17T12:21:53.570Z,0.50
2023-01-17T12:25:14.903Z,0.40
2023-01-17T12:28:46.687Z,0.30
2023-01-17T12:32:01.834Z,0.97
2023-01-17T12:35:12.275Z,0.60
2023-01-17T12:38:32.197Z,0.70
2023-01-17T12:41:43.889Z,0.40
2023-01-17T12:44:54.902Z,0.40
2023-01-17T12:48:05.526Z,0.60
2023-01-17T12:51:14.099Z,0.20
2023-01-17T12:54:24.351Z,0.40
2023-01-17T12:57:34.522Z,0.80
2023-01-17T13:00:39.852Z,0.50
2023-01-17T13:03:56.714Z,0.30
2023-01-17T13:07:09.708Z,0.33
2023-01-17T13:10:25.081Z,0.43
2023-01-17T13:13:29.542Z,0.50
2023-01-17T13:16:36.399Z,0.40
2023-01-17T13:19:45.908Z,0.63
2023-01-17T13:22:49.572Z,0.53
2023-01-17T13:25:56.939Z,0.47
2023-01-17T13:29:11.569Z,0.40
2023-01-17T13:32:27.515Z,0.60
2023-01-17T13:35:41.942Z,0.93
2023-01-17T13:38:59.052Z,0.60
2023-01-17T13:42:15.805Z,0.70
2023-01-17T13:45:22.007Z,0.50
2023-01-17T13:48:32.620Z,0.63
2023-01-17T13:52:04.576Z,0.60
2023-01-17T13:55:08.084Z,0.57
2023-01-17T13:58:30.276Z,0.60
2023-01-17T14:01:53.213Z,0.63
2023-01-17T14:05:11.755Z,0.77
2023-01-17T14:08:17.766Z,0.50
2023-01-17T14:11:20.887Z,0.50
2023-01-17T14:14:55.639Z,0.43
2023-01-17T14:18:00.448Z,0.70
2023-01-17T14:21:10.979Z,0.57
2023-01-17T14:24:17.815Z,0.70
2023-01-17T14:27:25.060Z,0.57
2023-01-17T14:30:36.615Z,0.63
2023-01-17T14:33:41.843Z,0.80
2023-01-17T14:36:45.105Z,0.70
2023-01-17T14:39:50.224Z,0.43
2023-01-17T14:43:00.293Z,0.43
2023-01-17T14:46:07.003Z,0.67
2023-01-17T14:49:26.886Z,0.80
2023-01-17T14:52:29.887Z,0.67
2023-01-17T14:55:32.944Z,0.60
2023-01-17T14:58:37.515Z,0.50
2023-01-17T15:01:42.715Z,0.70
2023-01-17T15:04:53.895Z,0.50
2023-01-17T15:07:59.072Z,0.80
2023-01-17T15:11:05.301Z,0.80
2023-01-17T15:14:09.084Z,0.40
2023-01-17T15:17:19.506Z,0.50
2023-01-17T15:20:22.569Z,0.80
2023-01-17T15:23:31.571Z,0.67
2023-01-17T15:26:35.994Z,0.50
2023-01-17T15:29:40.808Z,0.67
2023-01-17T15:32:49.172Z,0.70
2023-01-17T15:36:00.443Z,0.67
2023-01-17T15:39:06.320Z,0.50
2023-01-17T15:42:22.294Z,1.00
2023-01-17T15:45:29.446Z,0.73
2023-01-17T15:48:40.453Z,0.80
2023-01-17T15:51:48.698Z,0.50
2023-01-17T15:54:54.557Z,0.60
2023-01-17T15:57:57.514Z,0.47
2023-01-17T16:01:00.682Z,0.73
2023-01-17T16:04:05.411Z,0.70
2023-01-17T16:07:20.646Z,0.67
2023-01-17T16:10:25.533Z,0.53
2023-01-17T16:13:29.319Z,0.73
2023-01-17T16:16:32.309Z,0.90
2023-01-17T16:19:36.942Z,1.30
2023-01-17T16:22:39.951Z,1.17
2023-01-17T16:25:44.406Z,1.17
2023-01-17T16:28:48.116Z,1.20
2023-01-17T16:31:51.139Z,1.33
2023-01-17T16:34:55.467Z,0.80
2023-01-17T16:38:00.311Z,1.30
2023-01-17T16:41:05.335Z,1.30
2023-01-17T16:44:08.575Z,1.07
2023-01-17T16:47:11.657Z,1.53
2023-01-17T16:50:18.238Z,1.70
2023-01-17T16:53:24.797Z,1.90
2023-01-17T16:56:28.070Z,1.50
2023-01-17T16:59:45.930Z,1.90
2023-01-17T17:02:53.656Z,2.07
2023-01-17T17:05:59.667Z,1.97
2023-01-17T17:09:02.896Z,2.00
2023-01-17T17:12:06.913Z,2.10
2023-01-17T17:15:10.788Z,2.23
2023-01-17T17:18:15.852Z,2.03
2023-01-17T17:21:20.231Z,2.50
2023-01-17T17:24:23.210Z,2.23
2023-01-17T17:27:26.620Z,2.13
2023-01-17T17:30:31.116Z,2.53
2023-01-17T17:33:34.122Z,1.80
2023-01-17T17:36:38.828Z,2.07
2023-01-17T17:39:42.164Z,2.43
2023-01-17T17:42:45.187Z,2.13
2023-01-17T17:45:48.593Z,2.20
2023-01-17T17:48:51.984Z,2.20
2023-01-17T17:51:56.301Z,2.30
2023-01-17T17:54:59.289Z,2.40
2023-01-17T17:58:02.555Z,2.50
2023-01-17T18:01:06.968Z,2.33
2023-01-17T18:04:12.289Z,2.53
2023-01-17T18:07:16.620Z,1.90
2023-01-17T18:10:19.760Z,2.57
2023-01-17T18:13:22.836Z,2.67
2023-01-17T18:16:28.232Z,2.33
2023-01-17T18:19:31.333Z,2.63
2023-01-17T18:22:35.673Z,2.40
2023-01-17T18:25:39.360Z,2.13
2023-01-17T18:28:42.435Z,2.70
2023-01-17T18:31:46.693Z,2.70
2023-01-17T18:34:51.346Z,2.50
2023-01-17T18:37:57.536Z,2.50
2023-01-17T18:41:03.525Z,2.63
2023-01-17T18:44:08.021Z,2.77
2023-01-17T18:47:12.943Z,3.17
2023-01-17T18:50:16.508Z,3.00
2023-01-17T18:53:20.814Z,3.13
2023-01-17T18:56:24.391Z,3.87
2023-01-17T18:59:27.448Z,3.80
2023-01-17T19:02:30.411Z,3.50
2023-01-17T19:05:36.452Z,3.87
2023-01-17T19:08:41.081Z,3.87
2023-01-17T19:11:45.056Z,3.53
2023-01-17T19:14:48.074Z,3.73
2023-01-17T19:17:51.041Z,3.03
2023-01-17T19:20:54.001Z,3.77
2023-01-17T19:23:58.909Z,3.60
2023-01-17T19:27:02.652Z,3.50
2023-01-17T19:30:06.697Z,3.17
2023-01-17T19:33:09.677Z,3.10
2023-01-17T19:36:17.015Z,3.70
2023-01-17T19:39:25.270Z,3.33
2023-01-17T19:42:28.707Z,3.90
2023-01-17T19:45:31.720Z,4.00
2023-01-17T19:48:35.156Z,3.67
2023-01-17T19:51:39.308Z,3.83
2023-01-17T19:54:43.689Z,3.80
2023-01-17T19:57:46.662Z,3.83
2023-01-17T20:00:49.731Z,3.77
2023-01-17T20:03:53.047Z,4.63
2023-01-17T20:06:56.061Z,4.23
2023-01-17T20:10:00.635Z,4.00
2023-01-17T20:13:06.360Z,3.87
2023-01-17T20:16:11.967Z,4.27
2023-01-17T20:19:15.346Z,3.93
2023-01-17T20:22:18.416Z,4.10
2023-01-17T20:25:22.755Z,4.33
2023-01-17T20:28:27.711Z,4.20
2023-01-17T20:31:32.047Z,4.33
2023-01-17T20:34:35.060Z,4.00
2023-01-17T20:37:38.016Z,3.93
2023-01-17T20:40:42.691Z,4.30
2023-01-17T20:43:47.516Z,3.97
2023-01-17T20:46:50.515Z,4.23
2023-01-17T20:49:53.647Z,4.40
2023-01-17T20:52:56.592Z,3.77
2023-01-17T20:56:00.931Z,4.00
2023-01-17T20:59:06.146Z,3.67
2023-01-17T21:02:10.681Z,3.60
2023-01-17T21:05:14.517Z,4.20
2023-01-17T21:08:18.659Z,3.80
2023-01-17T21:11:24.706Z,3.43
2023-01-17T21:14:27.913Z,3.77
2023-01-17T21:17:30.952Z,4.03
2023-01-17T21:20:36.407Z,3.83
2023-01-17T21:23:41.021Z,3.77
2023-01-17T21:26:45.719Z,3.27
2023-01-17T21:29:48.782Z,3.20
2023-01-17T21:32:51.772Z,3.33
2023-01-17T21:35:55.199Z,3.67
2023-01-17T21:38:59.684Z,3.60
2023-01-17T21:42:03.989Z,2.90
2023-01-17T21:45:07.737Z,3.23
2023-01-17T21:48:13.024Z,3.27
2023-01-17T21:51:16.758Z,3.33
2023-01-17T21:54:19.819Z,3.70
2023-01-17T21:57:41.952Z,3.50
2023-01-17T22:00:45.019Z,3.40
2023-01-17T22:03:50.237Z,3.50
2023-01-17T22:06:53.315Z,3.50
2023-01-17T22:09:56.901Z,3.27
2023-01-17T22:13:01.213Z,3.27
2023-01-17T22:16:06.653Z,3.30
2023-01-17T22:19:09.649Z,3.40
2023-01-17T22:22:13.161Z,3.37
2023-01-17T22:25:16.208Z,3.37
2023-01-17T22:28:20.508Z,3.00
2023-01-17T22:31:26.228Z,3.70
2023-01-17T22:34:29.228Z,3.30
2023-01-17T22:37:32.178Z,2.77
2023-01-17T22:40:38.160Z,2.90
2023-01-17T22:43:44.597Z,3.13
2023-01-17T22:46:48.058Z,3.33
2023-01-17T22:49:51.101Z,3.40
2023-01-17T22:52:54.062Z,3.43
2023-01-17T22:56:05.592Z,3.60
2023-01-17T22:59:11.651Z,3.07
2023-01-17T23:02:16.410Z,3.10
2023-01-17T23:05:20.196Z,3.17
2023-01-17T23:08:23.155Z,3.37
2023-01-17T23:11:40.677Z,3.97
2023-01-17T23:15:08.251Z,3.40
2023-01-17T23:18:29.007Z,3.57
2023-01-17T23:21:51.975Z,4.17
2023-01-17T23:24:56.932Z,4.40
2023-01-17T23:28:12.132Z,3.80
2023-01-17T23:31:16.502Z,4.07
2023-01-17T23:34:19.450Z,4.00
2023-01-17T23:37:42.639Z,3.87
2023-01-17T23:41:07.479Z,4.60
2023-01-17T23:44:09.476Z,4.67
2023-01-17T23:47:13.776Z,3.93
2023-01-17T23:50:17.204Z,4.13
2023-01-17T23:53:23.060Z,5.13
2023-01-17T23:56:26.154Z,4.37
2023-01-17T23:59:29.320Z,4.57
